Time;durP1;ratioP1;P1;durP2;ratioP2;P2;SDS_P1;SDS_P2;PMS_P1;PMS_P2;Temp;Humidity;BMP_temperature;BMP_pressure;BME280_temperature;BME280_humidity;BME280_pressure;Samples;Min_cycle;Max_cycle;Signal;HPM_P1;HPM_P2
2022/04/29 00:01:45;;;;;;;9.57;6.30;;;;;;;3.68;100.00;102065.66;5089738;28;20220;-70
2022/04/29 00:04:11;;;;;;;11.47;6.30;;;;;;;3.57;100.00;102060.25;5090381;28;20718;-70
2022/04/29 00:06:55;;;;;;;9.20;6.10;;;;;;;3.62;100.00;102055.19;5089722;28;20217;-70
2022/04/29 00:09:22;;;;;;;9.47;6.70;;;;;;;3.66;100.00;102050.97;5078181;28;20228;-70
2022/04/29 00:11:57;;;;;;;10.73;6.23;;;;;;;3.62;100.00;102059.47;5090507;28;20190;-70
2022/04/29 00:14:41;;;;;;;9.53;6.47;;;;;;;3.67;100.00;102056.19;5090576;28;20281;-70
2022/04/29 00:17:09;;;;;;;9.10;6.50;;;;;;;3.51;100.00;102057.50;5095080;28;20599;-70
2022/04/29 00:19:46;;;;;;;9.97;6.20;;;;;;;3.43;100.00;102064.19;5095415;28;20869;-70
2022/04/29 00:22:21;;;;;;;10.73;6.73;;;;;;;3.48;100.00;102059.97;5090254;28;20620;-70
2022/04/29 00:24:50;;;;;;;9.60;7.00;;;;;;;3.40;100.00;102061.50;5087470;28;20649;-70
2022/04/29 00:27:46;;;;;;;9.87;6.33;;;;;;;3.39;100.00;102055.50;5082353;28;20226;-70
2022/04/29 00:30:23;;;;;;;9.83;6.30;;;;;;;3.45;100.00;102059.94;5090106;28;20194;-70
2022/04/29 00:32:58;;;;;;;10.43;6.53;;;;;;;3.56;100.00;102060.19;5089746;28;20198;-70
2022/04/29 00:35:35;;;;;;;11.30;6.13;;;;;;;3.40;100.00;102049.47;5093611;28;20270;-70
2022/04/29 00:38:06;;;;;;;12.20;6.47;;;;;;;3.32;100.00;102052.69;5089488;28;20304;-70
2022/04/29 00:40:36;;;;;;;8.63;6.83;;;;;;;3.35;100.00;102042.47;5087998;28;20727;-70
2022/04/29 00:43:07;;;;;;;9.23;7.03;;;;;;;3.33;100.00;102046.72;5090065;28;20208;-70
2022/04/29 00:45:36;;;;;;;7.93;6.70;;;;;;;3.21;100.00;102050.69;5102745;27;20212;-70
2022/04/29 00:48:08;;;;;;;12.90;7.60;;;;;;;3.13;100.00;102044.47;5092749;28;20295;-70
2022/04/29 00:50:46;;;;;;;10.13;7.73;;;;;;;3.17;100.00;102048.00;5088523;28;20193;-70
2022/04/29 00:53:19;;;;;;;9.70;6.90;;;;;;;3.11;100.00;102046.13;5085874;28;20281;-70
2022/04/29 00:55:50;;;;;;;9.70;7.80;;;;;;;3.06;100.00;102050.31;5082445;28;20445;-70
2022/04/29 00:58:42;;;;;;;9.07;7.07;;;;;;;2.99;100.00;102050.94;5080897;28;20213;-70
2022/04/29 01:01:25;;;;;;;12.10;7.60;;;;;;;2.98;100.00;102046.63;5088115;28;20546;-70
2022/04/29 01:03:57;;;;;;;10.23;7.30;;;;;;;3.00;100.00;102043.25;5091777;28;20301;-70
2022/04/29 01:06:28;;;;;;;11.70;8.27;;;;;;;3.05;100.00;102042.53;5089282;28;20209;-70
2022/04/29 01:08:59;;;;;;;10.00;7.70;;;;;;;3.10;100.00;102038.38;5088306;28;20220;-70
2022/04/29 01:11:41;;;;;;;11.87;8.20;;;;;;;2.93;100.00;102036.19;5089503;28;20234;-70
2022/04/29 01:14:41;;;;;;;11.70;8.40;;;;;;;2.87;100.00;102036.03;5087997;28;20253;-70
2022/04/29 01:17:30;;;;;;;12.70;8.07;;;;;;;2.88;100.00;102029.16;5088058;28;20247;-70
2022/04/29 01:20:05;;;;;;;11.00;8.17;;;;;;;2.78;100.00;102028.91;5082338;28;20210;-70
2022/04/29 01:22:36;;;;;;;11.77;8.07;;;;;;;2.72;100.00;102025.28;5087193;28;20572;-70
2022/04/29 01:25:08;;;;;;;12.30;8.30;;;;;;;2.86;100.00;102023.97;5089182;28;20186;-70
2022/04/29 01:27:38;;;;;;;10.53;8.20;;;;;;;2.75;100.00;102027.94;5087644;28;20716;-70
2022/04/29 01:30:15;;;;;;;11.23;7.80;;;;;;;2.75;100.00;102025.38;5093477;28;20313;-70
2022/04/29 01:32:46;;;;;;;14.13;8.53;;;;;;;2.72;100.00;102021.00;5085050;28;20201;-70
2022/04/29 01:35:16;;;;;;;11.13;8.07;;;;;;;2.75;100.00;102025.38;5088040;28;20201;-70
2022/04/29 01:37:49;;;;;;;16.10;8.40;;;;;;;2.85;100.00;102024.81;5088037;28;20469;-70
2022/04/29 01:40:31;;;;;;;12.13;7.97;;;;;;;2.71;100.00;102029.56;5093209;28;20213;-70
2022/04/29 01:43:02;;;;;;;12.07;7.90;;;;;;;2.75;100.00;102027.94;5082666;28;20197;-70
2022/04/29 01:45:32;;;;;;;14.27;8.20;;;;;;;2.78;100.00;102021.19;5087704;28;20549;-70
2022/04/29 01:48:32;;;;;;;14.37;8.17;;;;;;;2.60;100.00;102025.78;5067204;28;20234;-70
2022/04/29 01:54:31;;;;;;;11.23;8.00;;;;;;;2.61;100.00;102014.69;5085408;28;20194;-70
2022/04/29 01:57:06;;;;;;;14.37;8.13;;;;;;;2.55;100.00;102019.63;5089190;28;20224;-70
2022/04/29 01:59:33;;;;;;;11.03;8.73;;;;;;;2.58;100.00;102010.28;5087996;28;20190;-70
2022/04/29 02:02:21;;;;;;;12.70;8.43;;;;;;;2.64;100.00;102017.34;5085944;28;20196;-70
2022/04/29 02:04:57;;;;;;;12.13;8.33;;;;;;;2.62;100.00;102012.16;5079869;28;20660;-70
2022/04/29 02:07:34;;;;;;;11.97;8.10;;;;;;;2.53;100.00;102009.28;5086073;28;20217;-70
2022/04/29 02:10:17;;;;;;;12.63;9.00;;;;;;;2.40;100.00;102014.91;5083206;28;20230;-70
2022/04/29 02:12:50;;;;;;;12.10;8.70;;;;;;;2.40;100.00;102010.63;5091103;28;20200;-70
2022/04/29 02:15:30;;;;;;;11.57;8.20;;;;;;;2.30;100.00;102007.75;5092156;28;20190;-70
2022/04/29 02:18:10;;;;;;;12.13;9.23;;;;;;;2.24;100.00;102011.03;5087898;28;20242;-70
2022/04/29 02:20:41;;;;;;;11.63;7.83;;;;;;;2.22;100.00;102003.25;5086905;28;20641;-69
2022/04/29 02:23:13;;;;;;;10.70;8.30;;;;;;;2.22;100.00;102010.97;5088024;28;20205;-69
2022/04/29 02:25:50;;;;;;;9.93;8.60;;;;;;;2.26;100.00;102012.78;5087538;28;20216;-69
2022/04/29 02:28:21;;;;;;;12.37;7.50;;;;;;;2.21;100.00;102022.06;5088105;28;20614;-69
2022/04/29 02:30:53;;;;;;;10.17;7.73;;;;;;;2.25;100.00;102012.75;5087532;28;20292;-69
2022/04/29 02:33:27;;;;;;;11.47;8.03;;;;;;;2.34;100.00;102013.03;5087449;28;20285;-70
2022/04/29 02:35:54;;;;;;;12.47;8.07;;;;;;;2.16;100.00;102018.47;5088500;28;20210;-72
2022/04/29 02:38:30;;;;;;;10.03;7.90;;;;;;;2.25;100.00;102008.50;5091645;28;20216;-69
2022/04/29 02:41:05;;;;;;;10.27;7.90;;;;;;;2.22;100.00;102004.97;5090884;28;20285;-69
2022/04/29 02:43:45;;;;;;;10.43;7.60;;;;;;;2.20;100.00;101999.75;5091104;28;20621;-72
2022/04/29 02:46:16;;;;;;;11.37;7.60;;;;;;;2.27;100.00;102004.25;5092594;28;20205;-71
2022/04/29 02:48:57;;;;;;;13.27;8.30;;;;;;;2.22;100.00;102007.53;5109168;27;20226;-71
2022/04/29 02:51:49;;;;;;;9.67;7.50;;;;;;;2.30;100.00;102003.47;5094083;28;20208;-71
2022/04/29 02:54:23;;;;;;;10.27;7.97;;;;;;;2.27;100.00;102000.81;5089532;28;20215;-71
2022/04/29 02:56:57;;;;;;;11.00;8.33;;;;;;;2.29;100.00;101999.16;5081157;28;20266;-71
2022/04/29 02:59:44;;;;;;;10.77;7.90;;;;;;;2.20;100.00;101998.84;5091361;28;20200;-71
2022/04/29 03:02:14;;;;;;;11.07;8.20;;;;;;;2.10;100.00;102010.59;5090980;28;20208;-71
2022/04/29 03:04:55;;;;;;;11.17;8.17;;;;;;;1.98;100.00;102002.50;5090665;28;20199;-71
2022/04/29 03:07:24;;;;;;;12.77;8.63;;;;;;;2.02;100.00;102004.31;5090538;28;20223;-71
2022/04/29 03:09:58;;;;;;;11.43;8.43;;;;;;;2.06;100.00;101998.47;5091626;28;20230;-71
2022/04/29 03:12:26;;;;;;;12.03;8.97;;;;;;;1.99;100.00;102001.69;5092051;28;20202;-71
2022/04/29 03:15:15;;;;;;;11.20;8.47;;;;;;;1.94;100.00;102000.66;5102869;28;20192;-71
2022/04/29 03:20:38;;;;;;;11.53;8.27;;;;;;;1.93;100.00;101999.75;5092741;28;20596;-72
2022/04/29 03:23:13;;;;;;;10.97;8.20;;;;;;;1.91;100.00;102000.56;5091308;28;20289;-71
2022/04/29 03:26:11;;;;;;;13.10;8.37;;;;;;;1.72;100.00;101997.38;5086461;28;20538;-71
2022/04/29 03:28:40;;;;;;;11.43;7.90;;;;;;;1.85;100.00;101999.53;5081917;28;20221;-71
2022/04/29 03:31:09;;;;;;;11.50;7.63;;;;;;;1.80;100.00;102005.38;5091328;28;20202;-71
2022/04/29 03:34:06;;;;;;;11.23;8.37;;;;;;;1.80;100.00;102002.78;5105018;28;20217;-71
2022/04/29 03:36:39;;;;;;;11.73;8.30;;;;;;;1.74;100.00;101997.44;5090912;28;20509;-71
2022/04/29 03:39:15;;;;;;;14.37;7.77;;;;;;;1.80;100.00;102011.38;5092329;28;20680;-71
2022/04/29 03:41:45;;;;;;;12.03;8.43;;;;;;;1.68;100.00;102006.69;5100350;28;20249;-71
2022/04/29 03:44:20;;;;;;;10.70;8.23;;;;;;;1.67;100.00;102007.53;5101533;28;20191;-71
2022/04/29 03:47:02;;;;;;;10.30;7.77;;;;;;;1.62;100.00;102005.63;5092683;28;20200;-71
2022/04/29 03:49:42;;;;;;;9.33;8.00;;;;;;;1.52;100.00;102017.31;5090503;28;20198;-71
2022/04/29 03:52:26;;;;;;;10.00;7.67;;;;;;;1.54;100.00;102014.81;5090887;28;20572;-71
2022/04/29 03:54:58;;;;;;;12.90;8.17;;;;;;;1.69;100.00;102016.19;5093691;28;20275;-71
2022/04/29 03:57:30;;;;;;;11.07;7.30;;;;;;;1.86;100.00;102010.69;5090166;28;20621;-71
2022/04/29 03:59:59;;;;;;;11.30;8.27;;;;;;;1.74;100.00;102018.00;5090759;28;20210;-71
2022/04/29 04:02:33;;;;;;;12.00;8.33;;;;;;;1.65;100.00;102018.59;5090021;28;20224;-71
2022/04/29 04:05:17;;;;;;;11.27;7.93;;;;;;;1.58;100.00;102025.22;5090089;28;20195;-71
2022/04/29 04:08:02;;;;;;;13.60;8.30;;;;;;;1.75;100.00;102025.78;5091670;28;20721;-71
2022/04/29 04:10:54;;;;;;;14.70;8.00;;;;;;;1.75;100.00;102036.06;5082713;28;20216;-71
2022/04/29 04:13:23;;;;;;;12.10;7.63;;;;;;;1.84;100.00;102041.50;5095552;28;20197;-71
2022/04/29 04:16:14;;;;;;;11.73;8.40;;;;;;;1.90;100.00;102038.28;5097492;28;20844;-71
2022/04/29 04:18:51;;;;;;;12.80;8.00;;;;;;;1.92;100.00;102041.78;5104907;28;20215;-71
2022/04/29 04:21:26;;;;;;;11.97;8.73;;;;;;;1.99;100.00;102043.72;5095427;28;20616;-72
2022/04/29 04:24:12;;;;;;;13.40;8.77;;;;;;;2.25;100.00;102039.38;5087124;28;20705;-72
2022/04/29 04:26:40;;;;;;;12.83;8.93;;;;;;;2.41;100.00;102038.13;5088192;28;20721;-71
2022/04/29 04:29:14;;;;;;;17.30;9.90;;;;;;;2.47;100.00;102038.31;5090330;28;20227;-71
2022/04/29 04:31:51;;;;;;;13.33;8.90;;;;;;;2.65;100.00;102040.53;5088039;28;20207;-71
2022/04/29 04:37:28;;;;;;;13.13;9.77;;;;;;;2.87;100.00;102035.13;5088489;28;20224;-71
2022/04/29 04:40:10;;;;;;;18.40;10.47;;;;;;;2.91;100.00;102037.84;5087160;28;20289;-71
2022/04/29 04:42:53;;;;;;;16.10;10.77;;;;;;;3.13;100.00;102039.31;5088886;28;20667;-71
2022/04/29 04:45:37;;;;;;;16.20;10.37;;;;;;;3.32;100.00;102037.22;5088022;28;20197;-71
2022/04/29 04:48:34;;;;;;;14.67;9.83;;;;;;;3.50;100.00;102044.56;5087125;28;20271;-71
2022/04/29 04:51:21;;;;;;;15.53;10.30;;;;;;;3.68;100.00;102046.75;5085112;28;20205;-71
2022/04/29 04:53:58;;;;;;;15.23;9.90;;;;;;;3.72;100.00;102051.13;5081863;28;20202;-71
2022/04/29 04:56:28;;;;;;;14.93;10.80;;;;;;;3.84;100.00;102054.03;5085391;28;20194;-71
2022/04/29 04:58:56;;;;;;;14.87;10.73;;;;;;;4.02;100.00;102052.72;5100531;27;20245;-71
2022/04/29 05:01:34;;;;;;;13.90;9.67;;;;;;;4.28;100.00;102058.50;5086456;28;20259;-72
2022/04/29 05:04:25;;;;;;;13.87;9.23;;;;;;;4.32;100.00;102058.56;5086537;28;20241;-72
2022/04/29 05:07:13;;;;;;;13.90;9.97;;;;;;;4.42;100.00;102049.34;5086675;28;20302;-71
2022/04/29 05:09:48;;;;;;;13.87;9.70;;;;;;;4.46;100.00;102052.84;5102671;28;20330;-69
2022/04/29 05:12:22;;;;;;;18.60;10.50;;;;;;;4.53;100.00;102059.91;5084181;28;20202;-71
2022/04/29 05:15:13;;;;;;;11.23;8.73;;;;;;;4.68;100.00;102062.81;5087099;28;20201;-72
2022/04/29 05:17:52;;;;;;;14.03;10.13;;;;;;;4.71;100.00;102059.41;5086046;28;20233;-71
2022/04/29 05:20:33;;;;;;;15.23;9.20;;;;;;;4.82;100.00;102064.81;5084808;28;20225;-71
2022/04/29 05:23:17;;;;;;;18.13;9.33;;;;;;;4.88;100.00;102067.53;5083093;28;20193;-71
2022/04/29 05:26:15;;;;;;;11.57;9.13;;;;;;;5.06;100.00;102078.22;5086715;28;20307;-71
2022/04/29 05:29:10;;;;;;;11.83;8.67;;;;;;;5.19;100.00;102074.19;5086781;28;20275;-71
2022/04/29 05:32:01;;;;;;;11.93;8.00;;;;;;;5.38;100.00;102087.44;5083051;28;20198;-71
2022/04/29 05:34:48;;;;;;;11.90;8.53;;;;;;;5.58;100.00;102095.59;5083768;28;20295;-71
2022/04/29 05:37:34;;;;;;;10.73;8.27;;;;;;;5.74;100.00;102100.19;5083431;28;20734;-72
2022/04/29 05:42:53;;;;;;;12.50;8.40;;;;;;;5.93;100.00;102092.72;5087315;28;20204;-71
2022/04/29 05:45:20;;;;;;;10.30;7.70;;;;;;;6.02;100.00;102098.97;5087967;28;20200;-71
2022/04/29 05:47:46;;;;;;;10.53;8.40;;;;;;;6.12;100.00;102102.59;5085418;28;20224;-71
2022/04/29 05:50:13;;;;;;;10.97;8.40;;;;;;;6.28;100.00;102102.78;5085215;28;20572;-71
2022/04/29 05:52:41;;;;;;;11.63;8.90;;;;;;;6.46;100.00;102105.69;5085331;28;20206;-71
2022/04/29 05:55:09;;;;;;;12.30;8.63;;;;;;;6.59;100.00;102097.19;5085501;28;20690;-70
2022/04/29 05:57:37;;;;;;;12.60;8.93;;;;;;;6.78;100.00;102108.69;5079031;28;20214;-71
2022/04/29 06:00:06;;;;;;;10.13;8.60;;;;;;;6.95;100.00;102105.47;5085206;28;20247;-71
2022/04/29 06:02:42;;;;;;;9.87;7.80;;;;;;;7.16;100.00;102102.28;5090615;28;20205;-71
2022/04/29 06:05:16;;;;;;;12.00;7.50;;;;;;;7.33;100.00;102100.69;5092765;28;20206;-71
2022/04/29 06:07:46;;;;;;;10.27;8.33;;;;;;;7.44;100.00;102108.63;5089032;28;20248;-71
2022/04/29 06:10:21;;;;;;;13.33;8.80;;;;;;;7.47;100.00;102113.81;5094553;28;20611;-71
2022/04/29 06:12:48;;;;;;;11.53;8.13;;;;;;;7.55;100.00;102121.72;5094470;28;20204;-71
2022/04/29 06:15:32;;;;;;;8.87;7.53;;;;;;;7.58;100.00;102114.81;5090670;28;20200;-71
2022/04/29 06:18:08;;;;;;;8.87;7.20;;;;;;;7.57;100.00;102117.41;5090146;28;20290;-72
2022/04/29 06:21:06;;;;;;;10.17;7.43;;;;;;;7.63;100.00;102122.63;5094795;28;20209;-71
2022/04/29 06:23:50;;;;;;;9.33;8.17;;;;;;;7.68;100.00;102112.31;5089917;28;20209;-70
2022/04/29 06:26:18;;;;;;;9.20;7.87;;;;;;;7.69;100.00;102114.06;5089473;28;20205;-71
2022/04/29 06:28:45;;;;;;;11.27;8.30;;;;;;;7.67;100.00;102119.25;5093478;28;20708;-71
2022/04/29 06:31:13;;;;;;;9.80;7.83;;;;;;;7.69;100.00;102122.72;5090509;28;20297;-71
2022/04/29 06:33:58;;;;;;;8.90;7.93;;;;;;;7.78;100.00;102122.78;5091392;28;21176;-70
2022/04/29 06:36:25;;;;;;;9.07;7.60;;;;;;;7.76;100.00;102121.06;5086710;28;20248;-71
2022/04/29 06:38:58;;;;;;;13.13;9.07;;;;;;;7.84;100.00;102124.56;5085204;28;20227;-71
2022/04/29 06:41:44;;;;;;;11.43;8.03;;;;;;;8.02;100.00;102129.09;5088868;28;20194;-70
2022/04/29 06:44:23;;;;;;;10.97;8.50;;;;;;;8.22;100.00;102124.03;5085162;28;20680;-70
2022/04/29 06:47:08;;;;;;;12.87;8.50;;;;;;;8.40;97.29;102125.88;5084335;28;20508;-70
2022/04/29 06:49:53;;;;;;;10.63;7.53;;;;;;;8.61;94.96;102138.19;5089282;28;20221;-70
2022/04/29 06:52:48;;;;;;;14.30;7.63;;;;;;;8.83;93.82;102134.00;5084686;28;20207;-70
2022/04/29 06:55:23;;;;;;;10.27;8.20;;;;;;;9.04;94.15;102129.72;5080900;28;20822;-71
2022/04/29 06:57:50;;;;;;;10.13;7.63;;;;;;;9.23;91.47;102130.69;5086923;28;20733;-71
2022/04/29 07:00:18;;;;;;;11.90;7.80;;;;;;;9.38;88.43;102135.94;5087890;28;20197;-70
2022/04/29 07:02:48;;;;;;;8.33;7.20;;;;;;;9.59;88.25;102135.13;5089546;28;20287;-70
2022/04/29 07:05:14;;;;;;;12.23;7.40;;;;;;;9.70;85.97;102140.34;5084812;28;20638;-71
2022/04/29 07:07:41;;;;;;;9.90;7.30;;;;;;;9.77;83.20;102133.41;5083938;28;20903;-71
2022/04/29 07:10:32;;;;;;;11.30;7.87;;;;;;;9.87;81.61;102145.59;5067230;28;20226;-71
2022/04/29 07:13:19;;;;;;;10.63;7.57;;;;;;;9.96;83.42;102145.59;5087783;28;20197;-70
2022/04/29 07:15:48;;;;;;;9.60;7.00;;;;;;;10.04;83.96;102138.66;5086341;28;20243;-71
2022/04/29 07:18:41;;;;;;;9.90;7.70;;;;;;;10.09;81.46;102132.56;5059432;28;20621;-70
2022/04/29 07:21:07;;;;;;;11.40;7.90;;;;;;;10.15;80.48;102141.25;5086998;28;20235;-70
2022/04/29 07:23:34;;;;;;;9.77;7.50;;;;;;;10.28;80.64;102144.72;5087111;28;20281;-71
2022/04/29 07:26:01;;;;;;;9.33;7.87;;;;;;;10.45;80.60;102139.53;5086835;28;20198;-70
2022/04/29 07:28:28;;;;;;;12.63;7.37;;;;;;;10.60;79.84;102142.09;5088167;28;20703;-70
2022/04/29 07:30:56;;;;;;;11.97;7.70;;;;;;;10.74;77.21;102139.44;5087854;28;20217;-70
2022/04/29 07:33:43;;;;;;;10.17;7.20;;;;;;;10.91;73.31;102142.03;5086728;28;20282;-70
2022/04/29 07:41:57;;;;;;;8.87;5.87;;;;;;;11.36;72.45;102131.38;5083635;28;20250;-71
2022/04/29 07:44:26;;;;;;;10.03;7.27;;;;;;;11.50;70.04;102140.03;5077829;28;20646;-71
2022/04/29 07:46:54;;;;;;;8.00;6.07;;;;;;;11.63;70.16;102139.94;5096703;28;20208;-71
2022/04/29 07:49:48;;;;;;;12.00;6.83;;;;;;;11.80;69.48;102135.44;5081427;28;20709;-70
2022/04/29 07:52:19;;;;;;;10.97;7.03;;;;;;;11.97;71.35;102131.88;5080676;28;20214;-72
2022/04/29 07:55:06;;;;;;;11.70;7.13;;;;;;;12.05;68.02;102130.09;5076738;28;20614;-71
2022/04/29 07:57:58;;;;;;;10.50;6.60;;;;;;;12.23;68.87;102127.31;5099741;27;20573;-70
2022/04/29 08:00:34;;;;;;;9.60;6.30;;;;;;;12.37;68.23;102127.19;5080782;28;20563;-70
2022/04/29 08:03:11;;;;;;;8.93;6.17;;;;;;;12.45;69.13;102127.09;5101232;27;20199;-71
2022/04/29 08:06:09;;;;;;;8.20;6.03;;;;;;;12.59;63.18;102134.78;5080172;28;20210;-70
2022/04/29 08:11:26;;;;;;;9.27;6.10;;;;;;;12.95;60.76;102140.53;5097624;27;20718;-70
2022/04/29 08:14:29;;;;;;;10.10;6.00;;;;;;;13.08;57.34;102139.47;5058724;28;20216;-70
2022/04/29 08:17:16;;;;;;;8.33;5.20;;;;;;;13.22;59.90;102136.69;5086895;28;20245;-71
2022/04/29 08:19:48;;;;;;;8.23;5.50;;;;;;;13.34;60.72;102138.31;5084926;28;20295;-71
2022/04/29 08:22:20;;;;;;;8.87;4.90;;;;;;;13.35;57.68;102135.66;5082898;28;20698;-70
2022/04/29 08:24:48;;;;;;;7.83;5.00;;;;;;;13.39;54.42;102142.59;5084561;28;20267;-70
2022/04/29 08:27:15;;;;;;;10.13;5.20;;;;;;;13.36;53.52;102134.75;5082739;28;20218;-71
2022/04/29 08:29:43;;;;;;;9.07;4.93;;;;;;;13.35;55.33;102134.78;5082358;28;21003;-72
2022/04/29 08:32:10;;;;;;;7.27;4.23;;;;;;;13.40;55.49;102133.84;5083038;28;20222;-71
2022/04/29 08:34:39;;;;;;;8.67;5.70;;;;;;;13.46;58.71;102127.66;5082060;28;20294;-70
2022/04/29 08:37:06;;;;;;;7.27;5.20;;;;;;;13.42;58.10;102129.47;5080491;28;20690;-70
2022/04/29 08:39:39;;;;;;;10.73;6.33;;;;;;;13.60;56.17;102138.78;5101003;27;20255;-70
2022/04/29 08:42:06;;;;;;;7.73;5.47;;;;;;;13.69;55.86;102140.41;5083307;28;20285;-71
2022/04/29 08:44:35;;;;;;;7.97;5.73;;;;;;;13.74;55.87;102130.72;5081685;28;20210;-70
2022/04/29 08:47:20;;;;;;;7.70;4.90;;;;;;;13.86;54.34;102126.16;5086326;28;20236;-71
2022/04/29 08:50:11;;;;;;;7.43;4.87;;;;;;;14.08;57.33;102116.22;5070657;28;20909;-70
2022/04/29 08:52:39;;;;;;;9.57;4.67;;;;;;;14.29;55.82;102120.22;5085165;28;20202;-71
2022/04/29 09:00:42;;;;;;;9.90;4.97;;;;;;;14.39;56.82;102104.28;5087432;28;20597;-70
2022/04/29 09:03:14;;;;;;;7.57;4.67;;;;;;;14.37;53.21;102121.81;5085578;28;20214;-71
2022/04/29 09:05:41;;;;;;;7.50;4.53;;;;;;;14.47;52.47;102119.88;5083038;28;20203;-70
2022/04/29 09:08:07;;;;;;;6.20;4.93;;;;;;;14.40;52.59;102115.63;5083694;28;20227;-70
2022/04/29 09:10:35;;;;;;;7.60;4.50;;;;;;;14.51;50.08;102120.66;5084616;28;20227;-71
2022/04/29 09:13:13;;;;;;;9.07;4.57;;;;;;;14.78;54.18;102108.81;5085467;28;20207;-71
2022/04/29 09:15:46;;;;;;;7.20;4.30;;;;;;;15.05;52.40;102110.00;5082232;28;20203;-70
2022/04/29 09:18:14;;;;;;;8.33;4.50;;;;;;;15.10;51.77;102110.75;5076983;28;20292;-71
2022/04/29 09:20:41;;;;;;;7.47;4.90;;;;;;;15.18;53.31;102101.84;5082829;28;20217;-71
2022/04/29 09:23:10;;;;;;;6.80;5.13;;;;;;;15.06;51.78;102100.38;5078275;28;20204;-71
2022/04/29 09:25:58;;;;;;;8.00;4.37;;;;;;;15.14;51.14;102108.94;5082564;28;20213;-71
2022/04/29 09:28:42;;;;;;;5.87;3.90;;;;;;;15.15;49.61;102106.28;5081220;28;20596;-70
2022/04/29 09:31:26;;;;;;;4.43;3.70;;;;;;;15.19;47.50;102104.44;5081895;28;20219;-71
2022/04/29 09:33:56;;;;;;;5.53;4.10;;;;;;;15.31;50.55;102103.31;5085469;28;20553;-72
2022/04/29 09:36:29;;;;;;;4.43;3.77;;;;;;;15.36;49.65;102101.44;5083440;28;20193;-71
2022/04/29 09:41:54;;;;;;;8.00;4.17;;;;;;;15.36;49.71;102093.56;5083276;28;20197;-71
2022/04/29 09:44:29;;;;;;;8.80;4.23;;;;;;;15.32;48.76;102100.66;5084586;28;20207;-72
2022/04/29 09:46:56;;;;;;;5.77;4.20;;;;;;;15.38;48.24;102093.53;5089790;28;20201;-70
2022/04/29 09:49:27;;;;;;;5.00;4.13;;;;;;;15.55;50.92;102093.13;5090788;28;20199;-70
2022/04/29 09:51:54;;;;;;;6.13;3.33;;;;;;;15.38;45.33;102102.28;5089053;28;20216;-70
2022/04/29 09:54:25;;;;;;;5.93;3.47;;;;;;;15.31;44.97;102095.44;5089110;28;20208;-72
2022/04/29 09:57:07;;;;;;;5.43;3.37;;;;;;;15.26;45.11;102089.41;5089163;28;20227;-71
2022/04/29 09:59:35;;;;;;;6.20;3.40;;;;;;;15.10;47.33;102079.25;5089366;28;20259;-71
2022/04/29 10:02:02;;;;;;;5.47;3.83;;;;;;;14.92;48.67;102077.03;5090351;28;20201;-70
2022/04/29 10:04:33;;;;;;;6.03;3.70;;;;;;;14.85;48.93;102071.03;5088822;28;20622;-71
2022/04/29 10:07:01;;;;;;;7.10;3.60;;;;;;;14.86;48.46;102075.41;5085768;28;20306;-70
2022/04/29 10:09:31;;;;;;;5.63;3.83;;;;;;;15.03;48.63;102076.78;5091619;28;20568;-71
2022/04/29 10:11:59;;;;;;;8.20;3.43;;;;;;;15.31;52.71;102058.66;5078440;28;20232;-70
2022/04/29 10:14:28;;;;;;;5.83;3.50;;;;;;;15.45;49.78;102066.22;5089343;28;20206;-70
2022/04/29 10:23:05;;;;;;;7.33;4.07;;;;;;;15.62;49.46;102050.91;5086183;28;20196;-71
2022/04/29 10:25:33;;;;;;;6.17;3.20;;;;;;;15.71;49.10;102053.28;5087625;28;20206;-70
2022/04/29 10:28:01;;;;;;;6.17;3.40;;;;;;;15.73;49.94;102052.41;5089781;28;20232;-71
2022/04/29 10:30:29;;;;;;;5.37;3.10;;;;;;;15.75;45.84;102055.88;5087216;28;20209;-71
2022/04/29 10:33:07;;;;;;;6.70;3.53;;;;;;;15.99;48.94;102046.47;5087201;28;20292;-72
2022/04/29 10:35:50;;;;;;;5.63;3.67;;;;;;;16.01;46.63;102047.34;5088032;28;20201;-72
2022/04/29 10:38:18;;;;;;;5.73;3.33;;;;;;;16.16;45.91;102043.41;5087581;28;20221;-72
2022/04/29 10:40:48;;;;;;;5.37;3.37;;;;;;;16.20;45.51;102052.94;5083428;28;20770;-71
2022/04/29 10:43:18;;;;;;;7.20;3.23;;;;;;;16.08;44.21;102047.13;5089066;28;20209;-70
2022/04/29 10:46:16;;;;;;;5.90;3.43;;;;;;;16.00;46.07;102046.44;5088388;28;20241;-71
2022/04/29 10:48:53;;;;;;;8.33;3.40;;;;;;;16.27;47.15;102034.34;5087024;28;20225;-71
2022/04/29 10:51:50;;;;;;;3.60;3.03;;;;;;;16.53;47.43;102027.44;5086234;28;20224;-72
2022/04/29 10:54:43;;;;;;;5.77;3.67;;;;;;;16.42;48.17;102030.41;5088831;28;20194;-71
2022/04/29 10:57:40;;;;;;;6.57;3.27;;;;;;;16.61;45.60;102029.88;5085398;28;20226;-71
2022/04/29 11:00:12;;;;;;;3.90;3.00;;;;;;;16.42;43.36;102040.91;5088370;28;20947;-70
2022/04/29 11:02:42;;;;;;;5.73;3.20;;;;;;;16.33;42.15;102032.44;5087354;28;20900;-71
2022/04/29 11:05:08;;;;;;;7.47;3.23;;;;;;;16.31;45.75;102024.59;5083303;28;20677;-71
2022/04/29 11:07:39;;;;;;;3.63;2.60;;;;;;;16.34;42.34;102034.16;5099853;28;20616;-71
2022/04/29 11:10:13;;;;;;;4.03;2.73;;;;;;;16.51;42.57;102031.03;5088411;28;20251;-71
2022/04/29 11:12:55;;;;;;;6.30;2.93;;;;;;;16.58;41.68;102028.19;5101374;27;20214;-70
2022/04/29 11:15:42;;;;;;;4.30;2.53;;;;;;;16.50;43.93;102022.28;5087302;28;20225;-71
2022/04/29 11:18:16;;;;;;;4.80;2.87;;;;;;;16.41;43.70;102015.53;5080222;28;20644;-71
2022/04/29 11:20:46;;;;;;;4.30;2.80;;;;;;;16.52;45.31;102012.56;5085336;28;20201;-71
2022/04/29 11:26:09;;;;;;;3.23;2.40;;;;;;;16.82;41.90;102015.22;5087135;28;20198;-70
2022/04/29 11:28:41;;;;;;;5.07;2.60;;;;;;;16.99;43.96;102002.41;5081830;28;20232;-71
2022/04/29 11:31:23;;;;;;;2.80;2.50;;;;;;;17.21;44.15;101994.69;5083041;28;20210;-72
2022/04/29 11:33:50;;;;;;;5.67;2.57;;;;;;;17.36;45.23;101989.81;5082767;28;20198;-71
2022/04/29 11:36:16;;;;;;;4.40;2.80;;;;;;;17.32;42.84;101994.31;5087557;28;20357;-71
2022/04/29 11:38:47;;;;;;;4.00;2.67;;;;;;;17.32;42.40;101996.09;5081563;28;20700;-71
2022/04/29 11:41:18;;;;;;;4.30;2.70;;;;;;;17.01;41.56;102000.59;5087162;28;20239;-70
2022/04/29 11:43:46;;;;;;;3.77;2.73;;;;;;;17.21;45.99;101984.13;5087703;28;20205;-71
2022/04/29 11:46:13;;;;;;;2.93;2.43;;;;;;;17.48;43.24;101981.50;5087859;28;20202;-70
2022/04/29 11:48:51;;;;;;;5.03;2.60;;;;;;;17.46;41.23;101988.59;5084540;28;20222;-70
2022/04/29 11:51:17;;;;;;;5.37;2.57;;;;;;;17.53;42.24;101984.00;5082366;28;20221;-70
2022/04/29 11:54:00;;;;;;;6.23;2.70;;;;;;;17.29;41.00;101978.63;5085904;28;20206;-71
2022/04/29 11:56:34;;;;;;;3.50;2.23;;;;;;;17.33;44.13;101974.13;5088015;28;20209;-71
2022/04/29 11:59:00;;;;;;;3.90;2.50;;;;;;;17.39;42.11;101971.28;5082004;28;20296;-71
2022/04/29 12:01:28;;;;;;;4.57;2.40;;;;;;;17.70;45.09;101963.19;5085665;28;20194;-71
2022/04/29 12:03:55;;;;;;;5.20;2.50;;;;;;;17.82;40.66;101966.28;5086814;28;20201;-72
2022/04/29 12:06:21;;;;;;;3.33;2.50;;;;;;;17.67;40.37;101958.00;5086613;28;20200;-71
2022/04/29 12:08:48;;;;;;;2.63;2.40;;;;;;;17.65;39.51;101957.19;5087513;28;20227;-71
2022/04/29 12:11:30;;;;;;;2.63;2.37;;;;;;;17.79;39.71;101956.72;5086736;28;20271;-71
2022/04/29 12:13:57;;;;;;;4.40;2.63;;;;;;;17.94;41.05;101952.69;5083641;28;20324;-71
2022/04/29 12:16:24;;;;;;;2.63;2.00;;;;;;;17.88;39.17;101953.78;5086353;28;20202;-71
2022/04/29 12:18:52;;;;;;;2.50;2.00;;;;;;;17.80;36.51;101961.09;5083350;28;20978;-71
2022/04/29 12:21:23;;;;;;;2.33;2.10;;;;;;;17.75;36.38;101952.47;5087551;28;20794;-71
2022/04/29 12:23:50;;;;;;;3.20;2.03;;;;;;;17.76;36.80;101952.44;5085609;28;20202;-71
2022/04/29 12:26:17;;;;;;;3.73;2.10;;;;;;;17.71;36.70;101949.09;5086379;28;20196;-71
2022/04/29 12:28:53;;;;;;;3.80;2.10;;;;;;;17.76;38.72;101936.59;5088815;28;20225;-71
2022/04/29 12:37:07;;;;;;;3.10;2.20;;;;;;;17.85;37.22;101927.47;5085095;28;20224;-72
2022/04/29 12:39:49;;;;;;;5.33;2.33;;;;;;;17.87;36.35;101932.72;5084670;28;20206;-71
2022/04/29 12:42:18;;;;;;;2.83;2.03;;;;;;;17.95;39.16;101910.44;5087511;28;20300;-72
2022/04/29 12:45:07;;;;;;;3.93;2.20;;;;;;;18.17;39.67;101904.38;5086541;28;20201;-71